createdAt,value
2017-10-24T00:00:19.579Z,0
2017-10-24T00:01:20.982Z,0
2017-10-24T00:02:22.379Z,0
2017-10-24T00:03:23.777Z,0
2017-10-24T00:04:25.176Z,0
2017-10-24T00:05:26.575Z,0
2017-10-24T00:06:27.970Z,0
2017-10-24T00:07:29.371Z,0
2017-10-24T00:08:30.773Z,0
2017-10-24T00:09:32.172Z,0
2017-10-24T00:10:33.568Z,0
2017-10-24T00:11:34.990Z,0
2017-10-24T00:12:36.388Z,0
2017-10-24T00:13:37.784Z,0
2017-10-24T00:14:39.182Z,0
2017-10-24T00:15:40.583Z,0
2017-10-24T00:16:41.981Z,0
2017-10-24T00:17:43.380Z,0
2017-10-24T00:18:44.776Z,0
2017-10-24T00:19:46.174Z,0
2017-10-24T00:20:47.576Z,0
2017-10-24T00:21:48.974Z,0
2017-10-24T00:22:50.372Z,0
2017-10-24T00:23:51.775Z,0
2017-10-24T00:24:53.171Z,0
2017-10-24T00:25:54.572Z,0
2017-10-24T00:26:55.969Z,0
2017-10-24T00:27:57.367Z,0
2017-10-24T00:28:58.818Z,0
2017-10-24T00:30:00.216Z,0
2017-10-24T00:31:01.615Z,0
2017-10-24T00:32:03.014Z,0
2017-10-24T00:33:04.417Z,0
2017-10-24T00:34:05.811Z,0
2017-10-24T00:35:07.208Z,0
2017-10-24T00:36:08.608Z,0
2017-10-24T00:37:10.010Z,0
2017-10-24T00:38:11.409Z,0
2017-10-24T00:39:12.806Z,0
2017-10-24T00:40:14.206Z,0
2017-10-24T00:41:15.602Z,0
2017-10-24T00:42:16.999Z,0
2017-10-24T00:43:18.397Z,0
2017-10-24T00:44:19.800Z,0
2017-10-24T00:45:21.200Z,0
2017-10-24T00:46:22.595Z,0
2017-10-24T00:47:23.993Z,0
2017-10-24T00:48:25.392Z,0
2017-10-24T00:49:26.791Z,0
2017-10-24T00:50:28.189Z,0
2017-10-24T00:51:29.588Z,0
2017-10-24T00:52:30.984Z,0
2017-10-24T00:53:32.383Z,0
2017-10-24T00:54:33.782Z,0
2017-10-24T00:55:35.176Z,0
2017-10-24T00:56:36.577Z,0
2017-10-24T00:57:37.974Z,0
2017-10-24T00:58:39.389Z,0
2017-10-24T00:59:40.788Z,0
2017-10-24T01:00:42.188Z,0
2017-10-24T01:01:43.587Z,0
2017-10-24T01:02:44.986Z,0
2017-10-24T01:03:46.385Z,0
2017-10-24T01:04:47.790Z,0
2017-10-24T01:05:49.183Z,0
2017-10-24T01:06:50.588Z,0
2017-10-24T01:07:51.987Z,0
2017-10-24T01:08:53.387Z,0
2017-10-24T01:09:54.780Z,0
2017-10-24T01:10:56.182Z,0
2017-10-24T01:11:57.579Z,0
2017-10-24T01:12:58.981Z,0
2017-10-24T01:14:00.386Z,0
2017-10-24T01:15:01.780Z,0
2017-10-24T01:16:03.177Z,0
2017-10-24T01:17:04.573Z,0
2017-10-24T01:18:05.970Z,0
2017-10-24T01:19:07.371Z,0
2017-10-24T01:20:08.779Z,0
2017-10-24T01:21:10.171Z,0
2017-10-24T01:22:11.568Z,0
2017-10-24T01:23:12.964Z,0
2017-10-24T01:24:14.364Z,0
2017-10-24T01:25:15.759Z,0
2017-10-24T01:26:17.156Z,0
2017-10-24T01:27:18.559Z,0
2017-10-24T01:28:19.958Z,0
2017-10-24T01:29:21.356Z,0
2017-10-24T01:30:22.756Z,0
2017-10-24T01:31:24.153Z,0
2017-10-24T01:32:25.546Z,0
2017-10-24T01:33:26.944Z,0
2017-10-24T01:34:28.350Z,0
2017-10-24T01:35:29.749Z,0
2017-10-24T01:36:31.146Z,0
2017-10-24T01:37:32.539Z,0
2017-10-24T01:38:33.934Z,0
2017-10-24T01:39:35.355Z,0
2017-10-24T01:40:36.738Z,0
2017-10-24T01:41:38.145Z,0
2017-10-24T01:42:39.538Z,0
2017-10-24T01:43:40.933Z,0
2017-10-24T01:44:42.334Z,0
2017-10-24T01:45:43.734Z,0
2017-10-24T01:46:45.135Z,0
2017-10-24T01:47:46.536Z,0
2017-10-24T01:48:47.933Z,0
2017-10-24T01:49:49.331Z,0
2017-10-24T01:50:50.728Z,0
2017-10-24T01:51:52.126Z,0
2017-10-24T01:52:53.524Z,0
2017-10-24T01:53:54.923Z,0
2017-10-24T01:54:56.320Z,0
2017-10-24T01:55:57.722Z,0
2017-10-24T01:56:59.122Z,0
2017-10-24T01:58:00.523Z,0
2017-10-24T01:59:01.918Z,0
2017-10-24T02:00:03.313Z,0
2017-10-24T02:01:04.713Z,0
2017-10-24T02:02:06.115Z,0
2017-10-24T02:03:07.600Z,0
2017-10-24T02:04:09.024Z,0
2017-10-24T02:05:10.394Z,0
2017-10-24T02:06:11.791Z,0
2017-10-24T02:07:13.190Z,0
2017-10-24T02:08:14.590Z,0
2017-10-24T02:09:15.984Z,0
2017-10-24T02:10:17.387Z,0
2017-10-24T02:11:18.785Z,0
2017-10-24T02:12:20.183Z,0
2017-10-24T02:13:21.580Z,0
2017-10-24T02:14:22.982Z,0
2017-10-24T02:15:24.378Z,0
2017-10-24T02:16:25.780Z,0
2017-10-24T02:17:27.176Z,0
2017-10-24T02:18:28.575Z,0
2017-10-24T02:19:29.977Z,0
2017-10-24T02:20:31.375Z,0
2017-10-24T02:21:32.771Z,0
2017-10-24T02:22:34.167Z,0
2017-10-24T02:23:35.567Z,0
2017-10-24T02:24:36.966Z,0
2017-10-24T02:25:38.366Z,0
2017-10-24T02:26:39.764Z,0
2017-10-24T02:27:41.161Z,0
2017-10-24T02:28:42.558Z,0
2017-10-24T02:29:43.956Z,0
2017-10-24T02:30:45.353Z,0
2017-10-24T02:31:46.753Z,0
2017-10-24T02:32:48.152Z,0
2017-10-24T02:33:49.547Z,0
2017-10-24T02:34:50.944Z,0
2017-10-24T02:35:52.339Z,0
2017-10-24T02:36:53.737Z,0
2017-10-24T02:37:55.143Z,0
2017-10-24T02:38:56.544Z,0
2017-10-24T02:39:57.944Z,0
2017-10-24T02:40:59.339Z,0
2017-10-24T02:42:00.737Z,0
2017-10-24T02:43:02.133Z,0
2017-10-24T02:44:03.529Z,0
2017-10-24T02:45:04.930Z,0
2017-10-24T02:46:06.325Z,0
2017-10-24T02:47:07.726Z,0
2017-10-24T02:48:09.119Z,0
2017-10-24T02:49:10.518Z,0
2017-10-24T02:50:11.918Z,0
2017-10-24T02:51:13.381Z,0
2017-10-24T02:52:14.780Z,0
2017-10-24T02:53:16.183Z,0
2017-10-24T02:54:17.581Z,0
2017-10-24T02:55:18.980Z,0
2017-10-24T02:56:20.385Z,0
2017-10-24T02:57:21.777Z,0
2017-10-24T02:58:23.181Z,0
2017-10-24T02:59:24.574Z,0
2017-10-24T03:00:25.971Z,0
2017-10-24T03:01:27.378Z,0
2017-10-24T03:02:28.774Z,0
2017-10-24T03:03:30.175Z,0
2017-10-24T03:04:31.569Z,0
2017-10-24T03:05:32.966Z,0
2017-10-24T03:06:34.391Z,0
2017-10-24T03:07:35.784Z,0
2017-10-24T03:08:37.185Z,0
2017-10-24T03:09:38.584Z,0
2017-10-24T03:10:39.981Z,0
2017-10-24T03:11:41.377Z,0
2017-10-24T03:12:42.783Z,0
2017-10-24T03:13:44.177Z,0
2017-10-24T03:14:45.574Z,0
2017-10-24T03:15:46.973Z,0
2017-10-24T03:16:48.367Z,0
2017-10-24T03:17:49.768Z,0
2017-10-24T03:18:51.167Z,0
2017-10-24T03:19:52.566Z,0
2017-10-24T03:20:53.965Z,0
2017-10-24T03:21:55.366Z,0
2017-10-24T03:22:56.766Z,0
2017-10-24T03:23:58.161Z,0
2017-10-24T03:24:59.561Z,0
2017-10-24T03:26:00.958Z,0
2017-10-24T03:27:02.358Z,0
2017-10-24T03:28:03.759Z,0
2017-10-24T03:29:05.158Z,0
2017-10-24T03:30:06.559Z,0
2017-10-24T03:31:07.956Z,0
2017-10-24T03:32:09.350Z,0
2017-10-24T03:33:10.750Z,0
2017-10-24T03:34:12.146Z,0
2017-10-24T03:35:13.545Z,0
2017-10-24T03:36:14.946Z,0
2017-10-24T03:37:16.342Z,0
2017-10-24T03:38:17.740Z,0
2017-10-24T03:39:19.185Z,0
2017-10-24T03:40:20.580Z,0
2017-10-24T03:41:21.980Z,0
2017-10-24T03:42:23.378Z,0
2017-10-24T03:43:24.777Z,0
2017-10-24T03:44:26.180Z,0
2017-10-24T03:45:27.576Z,0
2017-10-24T03:46:28.975Z,0
2017-10-24T03:47:30.372Z,0
2017-10-24T03:48:31.769Z,0
2017-10-24T03:49:33.208Z,0
2017-10-24T03:50:34.607Z,0
2017-10-24T03:51:36.008Z,0
2017-10-24T03:52:37.404Z,0
2017-10-24T03:53:38.801Z,0
2017-10-24T03:54:40.201Z,0
2017-10-24T03:55:41.596Z,0
2017-10-24T03:56:42.997Z,0
2017-10-24T03:57:44.398Z,0
2017-10-24T03:58:45.800Z,0
2017-10-24T03:59:47.194Z,0
2017-10-24T04:00:48.591Z,0
2017-10-24T04:01:50.000Z,0
2017-10-24T04:02:51.390Z,0
2017-10-24T04:03:52.793Z,0
2017-10-24T04:04:54.189Z,0
2017-10-24T04:05:55.588Z,0
2017-10-24T04:06:56.988Z,0
2017-10-24T04:07:58.385Z,0
2017-10-24T04:08:59.789Z,0
2017-10-24T04:10:01.186Z,0
2017-10-24T04:11:02.586Z,0
2017-10-24T04:12:03.987Z,0
2017-10-24T04:13:05.389Z,0
2017-10-24T04:14:06.782Z,0
2017-10-24T04:15:08.177Z,0
2017-10-24T04:16:09.587Z,0
2017-10-24T04:17:10.975Z,0
2017-10-24T04:18:12.379Z,0
2017-10-24T04:19:13.782Z,0
2017-10-24T04:20:15.194Z,0
2017-10-24T04:21:16.582Z,0
2017-10-24T04:22:17.970Z,0
2017-10-24T04:23:19.369Z,0
2017-10-24T04:24:20.768Z,0
2017-10-24T04:25:22.166Z,0
2017-10-24T04:26:23.566Z,0
2017-10-24T04:27:25.039Z,0
2017-10-24T04:28:26.855Z,0
2017-10-24T04:29:28.263Z,0
2017-10-24T04:30:30.171Z,0
2017-10-24T04:31:31.567Z,0
2017-10-24T04:32:32.969Z,0
2017-10-24T04:33:34.371Z,0
2017-10-24T04:34:35.766Z,0
2017-10-24T04:35:37.162Z,0
2017-10-24T04:36:38.558Z,0
2017-10-24T04:37:39.960Z,0
2017-10-24T04:38:41.360Z,0
2017-10-24T04:39:42.756Z,0
2017-10-24T04:40:44.155Z,0
2017-10-24T04:41:45.554Z,0
2017-10-24T04:42:46.950Z,0
2017-10-24T04:43:48.351Z,0
2017-10-24T04:44:49.749Z,0
2017-10-24T04:45:51.150Z,0
2017-10-24T04:46:52.576Z,0
2017-10-24T04:47:53.963Z,0
2017-10-24T04:48:55.596Z,0
2017-10-24T04:49:57.583Z,0
2017-10-24T04:50:59.320Z,0
2017-10-24T04:52:00.718Z,0
2017-10-24T04:53:02.116Z,0
2017-10-24T04:54:03.513Z,0
2017-10-24T04:55:04.913Z,0
2017-10-24T04:56:06.314Z,0
2017-10-24T04:57:07.713Z,0
2017-10-24T04:58:09.113Z,0
2017-10-24T04:59:10.511Z,0
2017-10-24T05:00:11.910Z,0
2017-10-24T05:01:13.308Z,0
2017-10-24T05:02:14.711Z,0
2017-10-24T05:03:16.106Z,0
2017-10-24T05:04:17.503Z,0
2017-10-24T05:05:18.907Z,0
2017-10-24T05:06:20.298Z,0
2017-10-24T05:07:21.699Z,0
2017-10-24T05:08:23.095Z,0
2017-10-24T05:09:24.500Z,0
2017-10-24T05:10:25.903Z,0
2017-10-24T05:11:27.296Z,0
2017-10-24T05:12:28.696Z,0
2017-10-24T05:13:30.094Z,0
2017-10-24T05:14:31.493Z,0
2017-10-24T05:15:32.898Z,0
2017-10-24T05:16:34.310Z,0
2017-10-24T05:17:35.709Z,0
2017-10-24T05:18:37.109Z,0
2017-10-24T05:19:38.508Z,0
2017-10-24T05:20:39.903Z,0
2017-10-24T05:21:41.304Z,0
2017-10-24T05:22:42.705Z,0
2017-10-24T05:23:44.106Z,0
2017-10-24T05:24:45.511Z,0
2017-10-24T05:25:46.926Z,0
2017-10-24T05:26:48.324Z,0
2017-10-24T05:27:49.722Z,0
2017-10-24T05:28:51.123Z,0
2017-10-24T05:29:52.523Z,0
2017-10-24T05:30:53.959Z,0
2017-10-24T05:31:55.360Z,0
2017-10-24T05:32:56.757Z,0
2017-10-24T05:33:58.158Z,0
2017-10-24T05:34:59.557Z,0
2017-10-24T05:36:00.957Z,0
2017-10-24T05:37:02.355Z,0
2017-10-24T05:38:03.757Z,0
2017-10-24T05:39:05.159Z,0
2017-10-24T05:40:06.562Z,0
2017-10-24T05:41:07.954Z,0
2017-10-24T05:42:09.351Z,0
2017-10-24T05:43:10.754Z,0
2017-10-24T05:44:12.156Z,0
2017-10-24T05:45:13.556Z,0
2017-10-24T05:46:14.961Z,0
2017-10-24T05:47:16.357Z,0
2017-10-24T05:48:17.756Z,0
2017-10-24T05:49:19.152Z,0
2017-10-24T05:50:20.553Z,0
2017-10-24T05:51:21.955Z,0
2017-10-24T05:52:23.353Z,0
2017-10-24T05:53:24.750Z,0
2017-10-24T05:54:26.153Z,0
2017-10-24T05:55:27.545Z,0
2017-10-24T05:56:28.945Z,0
2017-10-24T05:57:30.347Z,0
2017-10-24T05:58:31.747Z,0
2017-10-24T05:59:33.149Z,0
2017-10-24T06:00:34.554Z,0
2017-10-24T06:01:35.952Z,0
2017-10-24T06:02:37.348Z,0
2017-10-24T06:03:38.753Z,0
2017-10-24T06:04:40.169Z,0
2017-10-24T06:05:41.574Z,0
2017-10-24T06:06:42.975Z,0
2017-10-24T06:07:44.378Z,0
2017-10-24T06:08:45.778Z,0
2017-10-24T06:09:47.177Z,0
2017-10-24T06:10:48.579Z,0
2017-10-24T06:11:49.982Z,0
2017-10-24T06:12:51.380Z,0
2017-10-24T06:13:52.783Z,0
2017-10-24T06:14:54.183Z,0
2017-10-24T06:15:55.581Z,0
2017-10-24T06:16:56.979Z,0
2017-10-24T06:17:58.379Z,0
2017-10-24T06:18:59.778Z,0
2017-10-24T06:20:01.176Z,0
2017-10-24T06:21:02.584Z,0
2017-10-24T06:22:03.981Z,0
2017-10-24T06:23:05.376Z,0
2017-10-24T06:24:06.777Z,0
2017-10-24T06:25:08.176Z,0
2017-10-24T06:26:09.577Z,0
2017-10-24T06:27:10.975Z,0
2017-10-24T06:28:12.379Z,0
2017-10-24T06:29:13.780Z,0
2017-10-24T06:30:15.180Z,0
2017-10-24T06:31:16.580Z,0
2017-10-24T06:32:17.980Z,0
2017-10-24T06:33:19.379Z,0
2017-10-24T06:34:20.776Z,0
2017-10-24T06:35:22.182Z,0
2017-10-24T06:36:23.579Z,0
2017-10-24T06:37:24.977Z,0
2017-10-24T06:38:26.377Z,0
2017-10-24T06:39:27.777Z,0
2017-10-24T06:40:29.178Z,0
2017-10-24T06:41:30.583Z,5
2017-10-24T06:42:31.987Z,5
2017-10-24T06:43:33.390Z,5
2017-10-24T06:44:34.789Z,5
2017-10-24T06:45:36.190Z,5
2017-10-24T06:46:37.594Z,5
2017-10-24T06:47:38.990Z,5
2017-10-24T06:48:40.397Z,11
2017-10-24T06:49:41.794Z,11
2017-10-24T06:50:43.198Z,11
2017-10-24T06:51:44.604Z,11
2017-10-24T06:52:46.006Z,11
2017-10-24T06:53:47.409Z,11
2017-10-24T06:54:48.815Z,11
2017-10-24T06:55:50.216Z,11
2017-10-24T06:56:51.628Z,11
2017-10-24T06:57:53.022Z,11
2017-10-24T06:58:54.423Z,11
2017-10-24T06:59:55.825Z,11
2017-10-24T07:00:57.228Z,16
2017-10-24T07:01:58.631Z,16
2017-10-24T07:03:00.037Z,16
2017-10-24T07:04:01.443Z,16
2017-10-24T07:05:02.857Z,16
2017-10-24T07:06:04.257Z,16
2017-10-24T07:07:05.664Z,16
2017-10-24T07:08:07.063Z,22
2017-10-24T07:09:08.464Z,22
2017-10-24T07:10:09.866Z,22
2017-10-24T07:11:11.268Z,28
2017-10-24T07:12:12.670Z,28
2017-10-24T07:13:14.068Z,28
2017-10-24T07:14:15.470Z,28
2017-10-24T07:15:16.869Z,28
2017-10-24T07:16:18.272Z,28
2017-10-24T07:17:19.676Z,28
2017-10-24T07:18:21.079Z,28
2017-10-24T07:19:22.484Z,28
2017-10-24T07:20:23.884Z,33
2017-10-24T07:21:25.283Z,33
2017-10-24T07:22:26.685Z,33
2017-10-24T07:23:28.088Z,33
2017-10-24T07:24:29.492Z,39
2017-10-24T07:25:30.900Z,39
2017-10-24T07:26:32.302Z,45
2017-10-24T07:27:33.701Z,45
2017-10-24T07:28:35.107Z,50
2017-10-24T07:29:36.508Z,50
2017-10-24T07:30:37.912Z,56
2017-10-24T07:31:39.315Z,61
2017-10-24T07:32:40.720Z,67
2017-10-24T07:33:42.120Z,67
2017-10-24T07:34:43.521Z,67
2017-10-24T07:35:44.925Z,67
2017-10-24T07:36:46.329Z,67
2017-10-24T07:37:47.732Z,67
2017-10-24T07:38:49.138Z,67
2017-10-24T07:39:50.543Z,67
2017-10-24T07:40:51.947Z,67
2017-10-24T07:41:53.349Z,67
2017-10-24T07:42:54.754Z,67
2017-10-24T07:43:56.157Z,73
2017-10-24T07:44:57.558Z,78
2017-10-24T07:45:58.960Z,78
2017-10-24T07:47:00.365Z,84
2017-10-24T07:48:01.770Z,84
2017-10-24T07:49:03.178Z,90
2017-10-24T07:50:04.574Z,101
2017-10-24T07:51:05.985Z,106
2017-10-24T07:52:07.388Z,106
2017-10-24T07:53:08.792Z,106
2017-10-24T07:54:10.198Z,101
2017-10-24T07:55:11.605Z,101
2017-10-24T07:56:13.009Z,95
2017-10-24T07:57:14.416Z,106
2017-10-24T07:58:15.825Z,106
2017-10-24T07:59:17.232Z,112
2017-10-24T08:00:18.642Z,118
2017-10-24T08:01:20.046Z,123
2017-10-24T08:02:21.454Z,123
2017-10-24T08:03:22.859Z,123
2017-10-24T08:04:24.262Z,123
2017-10-24T08:05:25.668Z,118
2017-10-24T08:06:27.075Z,73
2017-10-24T08:07:28.480Z,61
2017-10-24T08:08:29.885Z,61
2017-10-24T08:09:31.286Z,61
2017-10-24T08:10:32.688Z,78
2017-10-24T08:11:34.092Z,90
2017-10-24T08:12:35.495Z,95
2017-10-24T08:13:36.896Z,95
2017-10-24T08:14:38.299Z,95
2017-10-24T08:15:39.706Z,90
2017-10-24T08:16:41.111Z,90
2017-10-24T08:17:42.519Z,118
2017-10-24T08:18:43.919Z,129
2017-10-24T08:19:45.324Z,157
2017-10-24T08:20:46.727Z,174
2017-10-24T08:21:48.135Z,180
2017-10-24T08:22:49.540Z,202
2017-10-24T08:23:50.946Z,180
2017-10-24T08:24:52.350Z,174
2017-10-24T08:25:53.752Z,151
2017-10-24T08:26:55.173Z,140
2017-10-24T08:27:56.560Z,129
2017-10-24T08:28:57.968Z,123
2017-10-24T08:29:59.374Z,106
2017-10-24T08:31:00.778Z,106
2017-10-24T08:32:02.181Z,84
2017-10-24T08:33:03.589Z,90
2017-10-24T08:34:04.991Z,67
2017-10-24T08:35:06.395Z,61
2017-10-24T08:36:07.803Z,61
2017-10-24T08:37:09.207Z,61
2017-10-24T08:38:10.616Z,61
2017-10-24T08:39:12.020Z,61
2017-10-24T08:40:13.422Z,67
2017-10-24T08:41:14.826Z,73
2017-10-24T08:42:16.229Z,90
2017-10-24T08:43:17.636Z,101
2017-10-24T08:44:19.043Z,106
2017-10-24T08:45:20.449Z,129
2017-10-24T08:46:21.855Z,135
2017-10-24T08:47:23.259Z,135
2017-10-24T08:48:24.663Z,112
2017-10-24T08:49:26.069Z,135
2017-10-24T08:50:27.474Z,129
2017-10-24T08:51:28.880Z,95
2017-10-24T08:52:30.285Z,90
2017-10-24T08:53:31.691Z,112
2017-10-24T08:54:33.115Z,78
2017-10-24T08:55:34.520Z,78
2017-10-24T08:56:35.922Z,78
2017-10-24T08:57:37.346Z,78
2017-10-24T08:58:38.745Z,106
2017-10-24T08:59:40.152Z,123
2017-10-24T09:00:41.553Z,118
2017-10-24T09:01:42.958Z,118
2017-10-24T09:02:44.365Z,101
2017-10-24T09:03:45.771Z,101
2017-10-24T09:04:47.178Z,118
2017-10-24T09:05:48.586Z,157
2017-10-24T09:06:49.993Z,191
2017-10-24T09:07:51.401Z,196
2017-10-24T09:08:52.802Z,191
2017-10-24T09:09:54.208Z,180
2017-10-24T09:10:55.613Z,174
2017-10-24T09:11:57.018Z,157
2017-10-24T09:12:58.422Z,151
2017-10-24T09:13:59.827Z,151
2017-10-24T09:15:01.230Z,151
2017-10-24T09:16:02.634Z,157
2017-10-24T09:17:04.039Z,174
2017-10-24T09:18:05.440Z,185
2017-10-24T09:19:06.847Z,191
2017-10-24T09:20:08.254Z,185
2017-10-24T09:21:09.659Z,185
2017-10-24T09:22:11.065Z,185
2017-10-24T09:23:12.471Z,191
2017-10-24T09:24:13.878Z,151
2017-10-24T09:25:15.283Z,146
2017-10-24T09:26:16.690Z,146
2017-10-24T09:27:18.098Z,157
2017-10-24T09:28:19.505Z,180
2017-10-24T09:29:20.905Z,174
2017-10-24T09:30:22.310Z,191
2017-10-24T09:31:23.716Z,225
2017-10-24T09:32:25.117Z,253
2017-10-24T09:33:26.521Z,247
2017-10-24T09:34:27.928Z,275
2017-10-24T09:35:29.333Z,174
2017-10-24T09:36:30.738Z,168
2017-10-24T09:37:32.146Z,163
2017-10-24T09:38:33.550Z,157
2017-10-24T09:39:34.959Z,146
2017-10-24T09:40:36.385Z,146
2017-10-24T09:41:37.775Z,135
2017-10-24T09:42:39.186Z,123
2017-10-24T09:43:40.603Z,140
2017-10-24T09:44:42.008Z,157
2017-10-24T09:45:43.413Z,163
2017-10-24T09:46:44.819Z,135
2017-10-24T09:47:46.226Z,135
2017-10-24T09:48:47.632Z,146
2017-10-24T09:49:49.043Z,140
2017-10-24T09:50:50.451Z,123
2017-10-24T09:51:51.851Z,140
2017-10-24T09:52:53.260Z,129
2017-10-24T09:53:54.666Z,118
2017-10-24T09:54:56.071Z,101
2017-10-24T09:55:57.478Z,101
2017-10-24T09:56:58.887Z,112
2017-10-24T09:58:00.288Z,129
2017-10-24T09:59:01.691Z,157
2017-10-24T10:00:03.095Z,253
2017-10-24T10:01:04.502Z,174
2017-10-24T10:02:05.911Z,174
2017-10-24T10:03:07.317Z,180
2017-10-24T10:04:08.725Z,174
2017-10-24T10:05:10.131Z,163
2017-10-24T10:06:11.534Z,185
2017-10-24T10:07:12.940Z,675
2017-10-24T10:08:14.348Z,157
2017-10-24T10:09:15.757Z,151
2017-10-24T10:10:17.167Z,168
2017-10-24T10:11:18.575Z,275
2017-10-24T10:12:19.983Z,292
2017-10-24T10:13:21.387Z,151
2017-10-24T10:14:22.793Z,101
2017-10-24T10:15:24.197Z,95
2017-10-24T10:16:25.602Z,67
2017-10-24T10:17:27.007Z,61
2017-10-24T10:18:28.414Z,61
2017-10-24T10:19:29.823Z,61
2017-10-24T10:20:31.221Z,67
2017-10-24T10:21:32.625Z,61
2017-10-24T10:22:34.033Z,61
2017-10-24T10:23:35.438Z,56
2017-10-24T10:24:36.849Z,61
2017-10-24T10:25:38.253Z,61
2017-10-24T10:26:39.657Z,78
2017-10-24T10:27:41.062Z,78
2017-10-24T10:28:42.469Z,78
2017-10-24T10:29:43.870Z,84
2017-10-24T10:30:45.274Z,90
2017-10-24T10:31:46.680Z,84
2017-10-24T10:32:48.130Z,73
2017-10-24T10:33:49.539Z,78
2017-10-24T10:34:50.941Z,84
2017-10-24T10:35:52.349Z,84
2017-10-24T10:36:53.756Z,90
2017-10-24T10:37:55.159Z,90
2017-10-24T10:38:56.565Z,90
2017-10-24T10:39:57.972Z,90
2017-10-24T10:40:59.380Z,84
2017-10-24T10:42:00.784Z,84
2017-10-24T10:43:02.200Z,78
2017-10-24T10:44:03.603Z,84
2017-10-24T10:45:05.005Z,78
2017-10-24T10:46:06.414Z,84
2017-10-24T10:47:07.822Z,90
2017-10-24T10:48:09.224Z,95
2017-10-24T10:49:10.628Z,78
2017-10-24T10:50:12.029Z,84
2017-10-24T10:51:13.435Z,78
2017-10-24T10:52:14.840Z,67
2017-10-24T10:53:16.243Z,78
2017-10-24T10:54:17.651Z,73
2017-10-24T10:55:19.052Z,67
2017-10-24T10:56:20.458Z,67
2017-10-24T10:57:21.866Z,67
2017-10-24T10:58:23.272Z,61
2017-10-24T10:59:24.680Z,61
2017-10-24T11:00:26.088Z,61
2017-10-24T11:01:27.498Z,61
2017-10-24T11:02:28.903Z,56
2017-10-24T11:03:30.308Z,50
2017-10-24T11:04:31.712Z,50
2017-10-24T11:05:33.115Z,45
2017-10-24T11:06:34.524Z,45
2017-10-24T11:07:35.930Z,50
2017-10-24T11:08:37.338Z,45
2017-10-24T11:09:38.743Z,45
2017-10-24T11:10:40.144Z,50
2017-10-24T11:11:41.547Z,50
2017-10-24T11:12:42.951Z,56
2017-10-24T11:13:44.358Z,61
2017-10-24T11:14:45.765Z,61
2017-10-24T11:15:47.169Z,61
2017-10-24T11:16:48.572Z,61
2017-10-24T11:17:49.973Z,67
2017-10-24T11:18:51.378Z,61
2017-10-24T11:19:52.785Z,67
2017-10-24T11:20:54.193Z,61
2017-10-24T11:21:55.592Z,61
2017-10-24T11:22:57.003Z,61
2017-10-24T11:23:58.407Z,61
2017-10-24T11:24:59.810Z,67
2017-10-24T11:26:01.215Z,61
2017-10-24T11:27:02.621Z,61
2017-10-24T11:28:04.028Z,61
2017-10-24T11:29:05.435Z,67
2017-10-24T11:30:06.842Z,73
2017-10-24T11:31:08.242Z,84
2017-10-24T11:32:09.647Z,78
2017-10-24T11:33:11.050Z,78
2017-10-24T11:34:12.457Z,78
2017-10-24T11:35:13.858Z,84
2017-10-24T11:36:15.263Z,95
2017-10-24T11:37:16.670Z,95
2017-10-24T11:38:18.073Z,95
2017-10-24T11:39:19.475Z,95
2017-10-24T11:40:20.881Z,95
2017-10-24T11:41:22.287Z,90
2017-10-24T11:42:23.688Z,84
2017-10-24T11:43:25.094Z,95
2017-10-24T11:44:26.499Z,95
2017-10-24T11:45:27.902Z,95
2017-10-24T11:46:29.306Z,90
2017-10-24T11:47:30.710Z,101
2017-10-24T11:48:32.116Z,106
2017-10-24T11:49:33.521Z,95
2017-10-24T11:50:34.933Z,84
2017-10-24T11:51:36.346Z,84
2017-10-24T11:52:37.739Z,90
2017-10-24T11:53:39.144Z,90
2017-10-24T11:54:40.548Z,84
2017-10-24T11:55:41.953Z,78
2017-10-24T11:56:43.357Z,90
2017-10-24T11:57:44.762Z,95
2017-10-24T11:58:46.168Z,106
2017-10-24T11:59:47.572Z,95
2017-10-24T12:00:48.977Z,95
2017-10-24T12:01:50.384Z,90
2017-10-24T12:02:51.786Z,90
2017-10-24T12:03:53.203Z,90
2017-10-24T12:04:54.598Z,101
2017-10-24T12:05:56.005Z,95
2017-10-24T12:06:57.412Z,90
2017-10-24T12:07:58.818Z,84
2017-10-24T12:09:00.221Z,95
2017-10-24T12:10:01.634Z,84
2017-10-24T12:11:03.042Z,78
2017-10-24T12:12:04.504Z,73
2017-10-24T12:13:05.908Z,67
2017-10-24T12:14:07.325Z,73
2017-10-24T12:15:08.716Z,73
2017-10-24T12:16:10.148Z,84
2017-10-24T12:17:11.553Z,90
2017-10-24T12:18:12.958Z,84
2017-10-24T12:19:14.364Z,84
2017-10-24T12:20:15.763Z,84
2017-10-24T12:21:17.171Z,90
2017-10-24T12:22:18.580Z,90
2017-10-24T12:23:19.984Z,90
2017-10-24T12:24:21.388Z,90
2017-10-24T12:25:22.793Z,90
2017-10-24T12:26:24.200Z,84
2017-10-24T12:27:25.603Z,95
2017-10-24T12:28:27.007Z,95
2017-10-24T12:29:28.409Z,90
2017-10-24T12:30:29.814Z,90
2017-10-24T12:31:31.219Z,84
2017-10-24T12:32:32.622Z,78
2017-10-24T12:33:34.028Z,56
2017-10-24T12:34:35.433Z,61
2017-10-24T12:35:36.838Z,56
2017-10-24T12:36:38.241Z,61
2017-10-24T12:37:39.644Z,61
2017-10-24T12:38:41.049Z,61
2017-10-24T12:39:42.454Z,67
2017-10-24T12:40:43.858Z,67
2017-10-24T12:41:45.265Z,67
2017-10-24T12:42:46.666Z,73
2017-10-24T12:43:48.065Z,73
2017-10-24T12:44:49.475Z,78
2017-10-24T12:45:50.880Z,90
2017-10-24T12:46:52.286Z,101
2017-10-24T12:47:53.696Z,112
2017-10-24T12:48:55.106Z,118
2017-10-24T12:49:56.511Z,123
2017-10-24T12:50:57.916Z,123
2017-10-24T12:51:59.322Z,123
2017-10-24T12:53:00.741Z,123
2017-10-24T12:54:02.137Z,129
2017-10-24T12:55:03.543Z,151
2017-10-24T12:56:04.946Z,146
2017-10-24T12:57:06.348Z,140
2017-10-24T12:58:07.757Z,140
2017-10-24T12:59:09.157Z,146
2017-10-24T13:00:10.565Z,180
2017-10-24T13:01:11.969Z,196
2017-10-24T13:02:13.375Z,180
2017-10-24T13:03:14.780Z,180
2017-10-24T13:04:16.186Z,174
2017-10-24T13:05:17.590Z,174
2017-10-24T13:06:18.995Z,174
2017-10-24T13:07:20.403Z,191
2017-10-24T13:08:21.813Z,191
2017-10-24T13:09:23.220Z,168
2017-10-24T13:10:24.628Z,135
2017-10-24T13:11:26.033Z,123
2017-10-24T13:12:27.435Z,112
2017-10-24T13:13:28.838Z,106
2017-10-24T13:14:30.245Z,101
2017-10-24T13:15:31.652Z,101
2017-10-24T13:16:33.057Z,101
2017-10-24T13:17:34.465Z,101
2017-10-24T13:18:35.868Z,95
2017-10-24T13:19:37.273Z,84
2017-10-24T13:20:38.679Z,78
2017-10-24T13:21:40.082Z,78
2017-10-24T13:22:41.488Z,78
2017-10-24T13:23:42.896Z,84
2017-10-24T13:24:44.303Z,90
2017-10-24T13:25:45.711Z,84
2017-10-24T13:26:47.118Z,84
2017-10-24T13:27:48.522Z,78
2017-10-24T13:28:49.924Z,84
2017-10-24T13:29:51.328Z,84
2017-10-24T13:30:52.732Z,78
2017-10-24T13:31:54.147Z,84
2017-10-24T13:32:55.543Z,90
2017-10-24T13:33:56.951Z,90
2017-10-24T13:34:58.357Z,84
2017-10-24T13:35:59.759Z,78
2017-10-24T13:37:01.166Z,78
2017-10-24T13:38:02.574Z,84
2017-10-24T13:39:03.981Z,84
2017-10-24T13:40:05.384Z,95
2017-10-24T13:41:06.790Z,95
2017-10-24T13:42:08.194Z,95
2017-10-24T13:43:09.596Z,95
2017-10-24T13:44:11.004Z,106
2017-10-24T13:45:12.407Z,95
2017-10-24T13:46:13.814Z,78
2017-10-24T13:47:15.220Z,78
2017-10-24T13:48:16.625Z,78
2017-10-24T13:49:18.029Z,78
2017-10-24T13:50:19.433Z,67
2017-10-24T13:51:20.850Z,67
2017-10-24T13:52:22.304Z,67
2017-10-24T13:53:23.705Z,67
2017-10-24T13:54:25.106Z,67
2017-10-24T13:55:26.510Z,61
2017-10-24T13:56:27.916Z,61
2017-10-24T13:57:29.325Z,56
2017-10-24T13:58:30.730Z,50
2017-10-24T13:59:32.136Z,56
2017-10-24T14:00:33.543Z,56
2017-10-24T14:01:34.947Z,45
2017-10-24T14:02:36.349Z,45
2017-10-24T14:03:37.750Z,45
2017-10-24T14:04:39.155Z,45
2017-10-24T14:05:40.559Z,45
2017-10-24T14:06:41.967Z,45
2017-10-24T14:07:43.326Z,45
2017-10-24T14:08:44.727Z,45
2017-10-24T14:09:46.132Z,39
2017-10-24T14:10:47.533Z,39
2017-10-24T14:11:48.939Z,33
2017-10-24T14:12:50.343Z,33
2017-10-24T14:13:51.748Z,39
2017-10-24T14:14:53.150Z,39
2017-10-24T14:15:54.552Z,39
2017-10-24T14:16:55.954Z,39
2017-10-24T14:17:57.356Z,39
2017-10-24T14:18:58.759Z,39
2017-10-24T14:20:00.164Z,39
2017-10-24T14:21:01.566Z,45
2017-10-24T14:22:02.971Z,45
2017-10-24T14:23:04.372Z,50
2017-10-24T14:24:05.777Z,50
2017-10-24T14:25:07.178Z,45
2017-10-24T14:26:08.584Z,45
2017-10-24T14:27:09.992Z,39
2017-10-24T14:28:11.389Z,39
2017-10-24T14:29:12.800Z,39
2017-10-24T14:30:14.208Z,33
2017-10-24T14:31:15.608Z,33
2017-10-24T14:32:17.010Z,33
2017-10-24T14:33:18.413Z,33
2017-10-24T14:34:19.817Z,33
2017-10-24T14:35:21.219Z,33
2017-10-24T14:36:22.623Z,33
2017-10-24T14:37:24.025Z,33
2017-10-24T14:38:25.427Z,33
2017-10-24T14:39:26.831Z,28
2017-10-24T14:40:28.244Z,28
2017-10-24T14:41:29.647Z,22
2017-10-24T14:42:31.049Z,22
2017-10-24T14:43:32.448Z,28
2017-10-24T14:44:33.849Z,28